sensor_id;sensor_type;location;lat;lon;timestamp;temperature;humidity
8979;DHT22;4524;51.364;5.448;2023-08-31T00:01:32;12.80;99.90
8979;DHT22;4524;51.364;5.448;2023-08-31T00:04:02;12.80;99.90
8979;DHT22;4524;51.364;5.448;2023-08-31T00:06:31;12.80;99.90
8979;DHT22;4524;51.364;5.448;2023-08-31T00:08:59;12.80;99.90
8979;DHT22;4524;51.364;5.448;2023-08-31T00:11:27;12.80;99.90
8979;DHT22;4524;51.364;5.448;2023-08-31T00:13:55;12.80;99.90
8979;DHT22;4524;51.364;5.448;2023-08-31T00:16:24;12.70;99.90
8979;DHT22;4524;51.364;5.448;2023-08-31T00:18:53;12.60;99.90
8979;DHT22;4524;51.364;5.448;2023-08-31T00:21:23;12.70;99.90
8979;DHT22;4524;51.364;5.448;2023-08-31T00:23:51;12.70;99.90
8979;DHT22;4524;51.364;5.448;2023-08-31T00:26:21;12.60;99.90
8979;DHT22;4524;51.364;5.448;2023-08-31T00:28:49;12.60;99.90
8979;DHT22;4524;51.364;5.448;2023-08-31T00:31:17;12.60;99.90
8979;DHT22;4524;51.364;5.448;2023-08-31T00:33:45;12.60;99.90
8979;DHT22;4524;51.364;5.448;2023-08-31T00:36:17;12.60;99.90
8979;DHT22;4524;51.364;5.448;2023-08-31T00:38:47;12.50;99.90
8979;DHT22;4524;51.364;5.448;2023-08-31T00:41:15;12.50;99.90
8979;DHT22;4524;51.364;5.448;2023-08-31T00:43:43;12.50;99.90
8979;DHT22;4524;51.364;5.448;2023-08-31T00:46:11;12.50;99.90
8979;DHT22;4524;51.364;5.448;2023-08-31T00:48:41;12.50;99.90
8979;DHT22;4524;51.364;5.448;2023-08-31T00:51:09;12.50;99.90
8979;DHT22;4524;51.364;5.448;2023-08-31T00:53:38;12.40;99.90
8979;DHT22;4524;51.364;5.448;2023-08-31T00:56:08;12.40;99.90
8979;DHT22;4524;51.364;5.448;2023-08-31T00:58:36;12.40;99.90
8979;DHT22;4524;51.364;5.448;2023-08-31T01:01:11;12.40;99.90
8979;DHT22;4524;51.364;5.448;2023-08-31T01:03:48;12.40;99.90
8979;DHT22;4524;51.364;5.448;2023-08-31T01:06:27;12.40;99.90
8979;DHT22;4524;51.364;5.448;2023-08-31T01:09:02;12.40;99.90
8979;DHT22;4524;51.364;5.448;2023-08-31T01:11:45;12.40;99.90
8979;DHT22;4524;51.364;5.448;2023-08-31T01:14:19;12.30;99.90
8979;DHT22;4524;51.364;5.448;2023-08-31T01:16:52;12.30;99.90
8979;DHT22;4524;51.364;5.448;2023-08-31T01:19:31;12.30;99.90
8979;DHT22;4524;51.364;5.448;2023-08-31T01:22:07;12.30;99.90
8979;DHT22;4524;51.364;5.448;2023-08-31T01:24:39;12.20;99.90
8979;DHT22;4524;51.364;5.448;2023-08-31T01:27:08;12.20;99.90
8979;DHT22;4524;51.364;5.448;2023-08-31T01:29:36;12.20;99.90
8979;DHT22;4524;51.364;5.448;2023-08-31T01:32:05;12.20;99.90
8979;DHT22;4524;51.364;5.448;2023-08-31T01:34:36;12.20;99.90
8979;DHT22;4524;51.364;5.448;2023-08-31T01:37:17;12.20;99.90
8979;DHT22;4524;51.364;5.448;2023-08-31T01:39:54;12.10;99.90
8979;DHT22;4524;51.364;5.448;2023-08-31T01:42:26;12.20;99.90
8979;DHT22;4524;51.364;5.448;2023-08-31T01:44:56;12.20;99.90
8979;DHT22;4524;51.364;5.448;2023-08-31T01:47:25;12.10;99.90
8979;DHT22;4524;51.364;5.448;2023-08-31T01:49:53;12.10;99.90
8979;DHT22;4524;51.364;5.448;2023-08-31T01:52:23;12.10;99.90
8979;DHT22;4524;51.364;5.448;2023-08-31T01:54:52;12.10;99.90
8979;DHT22;4524;51.364;5.448;2023-08-31T01:57:21;12.10;99.90
8979;DHT22;4524;51.364;5.448;2023-08-31T02:00:03;12.10;99.90
8979;DHT22;4524;51.364;5.448;2023-08-31T02:02:40;12.10;99.90
8979;DHT22;4524;51.364;5.448;2023-08-31T02:05:09;12.00;99.90
8979;DHT22;4524;51.364;5.448;2023-08-31T02:07:37;12.00;99.90
8979;DHT22;4524;51.364;5.448;2023-08-31T02:10:08;12.00;99.90
8979;DHT22;4524;51.364;5.448;2023-08-31T02:12:37;12.00;99.90
8979;DHT22;4524;51.364;5.448;2023-08-31T02:15:05;12.00;99.90
8979;DHT22;4524;51.364;5.448;2023-08-31T02:17:34;12.00;99.90
8979;DHT22;4524;51.364;5.448;2023-08-31T02:20:02;11.90;99.90
8979;DHT22;4524;51.364;5.448;2023-08-31T02:22:34;11.90;99.90
8979;DHT22;4524;51.364;5.448;2023-08-31T02:25:03;12.00;99.90
8979;DHT22;4524;51.364;5.448;2023-08-31T02:27:33;12.00;99.90
8979;DHT22;4524;51.364;5.448;2023-08-31T02:30:01;12.00;99.90
8979;DHT22;4524;51.364;5.448;2023-08-31T02:32:33;12.00;99.90
8979;DHT22;4524;51.364;5.448;2023-08-31T02:35:02;12.00;99.90
8979;DHT22;4524;51.364;5.448;2023-08-31T02:37:49;12.00;99.90
8979;DHT22;4524;51.364;5.448;2023-08-31T02:40:18;12.00;99.90
8979;DHT22;4524;51.364;5.448;2023-08-31T02:42:51;12.00;99.90
8979;DHT22;4524;51.364;5.448;2023-08-31T02:45:20;11.90;99.90
8979;DHT22;4524;51.364;5.448;2023-08-31T02:47:48;11.90;99.90
8979;DHT22;4524;51.364;5.448;2023-08-31T02:50:17;11.90;99.90
8979;DHT22;4524;51.364;5.448;2023-08-31T02:52:45;11.90;99.90
8979;DHT22;4524;51.364;5.448;2023-08-31T02:55:13;11.90;99.90
8979;DHT22;4524;51.364;5.448;2023-08-31T02:57:41;11.90;99.90
8979;DHT22;4524;51.364;5.448;2023-08-31T03:00:12;11.90;99.90
8979;DHT22;4524;51.364;5.448;2023-08-31T03:02:40;11.90;99.90
8979;DHT22;4524;51.364;5.448;2023-08-31T03:05:08;11.80;99.90
8979;DHT22;4524;51.364;5.448;2023-08-31T03:07:36;11.90;99.90
8979;DHT22;4524;51.364;5.448;2023-08-31T03:10:06;11.80;99.90
8979;DHT22;4524;51.364;5.448;2023-08-31T03:12:35;11.90;99.90
8979;DHT22;4524;51.364;5.448;2023-08-31T03:15:04;11.80;99.90
8979;DHT22;4524;51.364;5.448;2023-08-31T03:17:33;11.80;99.90
8979;DHT22;4524;51.364;5.448;2023-08-31T03:20:02;11.80;99.90
8979;DHT22;4524;51.364;5.448;2023-08-31T03:22:33;11.90;99.90
8979;DHT22;4524;51.364;5.448;2023-08-31T03:25:02;11.80;99.90
8979;DHT22;4524;51.364;5.448;2023-08-31T03:27:30;11.80;99.90
8979;DHT22;4524;51.364;5.448;2023-08-31T03:30:00;11.80;99.90
8979;DHT22;4524;51.364;5.448;2023-08-31T03:32:28;11.80;99.90
8979;DHT22;4524;51.364;5.448;2023-08-31T03:37:48;11.70;99.90
8979;DHT22;4524;51.364;5.448;2023-08-31T03:40:16;11.70;99.90
8979;DHT22;4524;51.364;5.448;2023-08-31T03:42:44;11.80;99.90
8979;DHT22;4524;51.364;5.448;2023-08-31T03:45:12;11.80;99.90
8979;DHT22;4524;51.364;5.448;2023-08-31T03:48:00;11.70;99.90
8979;DHT22;4524;51.364;5.448;2023-08-31T03:50:29;11.70;99.90
8979;DHT22;4524;51.364;5.448;2023-08-31T03:52:58;11.70;99.90
8979;DHT22;4524;51.364;5.448;2023-08-31T03:55:27;11.70;99.90
8979;DHT22;4524;51.364;5.448;2023-08-31T03:57:56;11.70;99.90
8979;DHT22;4524;51.364;5.448;2023-08-31T04:00:25;11.70;99.90
8979;DHT22;4524;51.364;5.448;2023-08-31T04:02:54;11.70;99.90
8979;DHT22;4524;51.364;5.448;2023-08-31T04:05:24;11.70;99.90
8979;DHT22;4524;51.364;5.448;2023-08-31T04:08:13;11.70;99.90
8979;DHT22;4524;51.364;5.448;2023-08-31T04:10:41;11.70;99.90
8979;DHT22;4524;51.364;5.448;2023-08-31T04:13:09;11.70;99.90
8979;DHT22;4524;51.364;5.448;2023-08-31T04:15:38;11.70;99.90
8979;DHT22;4524;51.364;5.448;2023-08-31T04:18:06;11.70;99.90
8979;DHT22;4524;51.364;5.448;2023-08-31T04:20:34;11.70;99.90
8979;DHT22;4524;51.364;5.448;2023-08-31T04:23:02;11.70;99.90
8979;DHT22;4524;51.364;5.448;2023-08-31T04:25:32;11.70;99.90
8979;DHT22;4524;51.364;5.448;2023-08-31T04:28:00;11.70;99.90
8979;DHT22;4524;51.364;5.448;2023-08-31T04:30:28;12.20;99.90
8979;DHT22;4524;51.364;5.448;2023-08-31T04:32:57;12.70;99.90
8979;DHT22;4524;51.364;5.448;2023-08-31T04:35:25;13.20;99.90
8979;DHT22;4524;51.364;5.448;2023-08-31T04:37:53;13.60;99.90
8979;DHT22;4524;51.364;5.448;2023-08-31T04:40:21;13.70;99.90
8979;DHT22;4524;51.364;5.448;2023-08-31T04:42:51;13.70;99.90
8979;DHT22;4524;51.364;5.448;2023-08-31T04:45:19;13.50;99.90
8979;DHT22;4524;51.364;5.448;2023-08-31T04:47:47;13.80;99.90
8979;DHT22;4524;51.364;5.448;2023-08-31T04:50:16;13.70;99.90
8979;DHT22;4524;51.364;5.448;2023-08-31T04:52:44;13.60;99.90
8979;DHT22;4524;51.364;5.448;2023-08-31T04:55:13;13.50;99.90
8979;DHT22;4524;51.364;5.448;2023-08-31T04:57:41;13.50;99.90
8979;DHT22;4524;51.364;5.448;2023-08-31T05:00:11;13.40;99.90
8979;DHT22;4524;51.364;5.448;2023-08-31T05:02:39;13.00;99.90
8979;DHT22;4524;51.364;5.448;2023-08-31T05:05:08;12.70;99.90
8979;DHT22;4524;51.364;5.448;2023-08-31T05:07:37;12.70;99.90
8979;DHT22;4524;51.364;5.448;2023-08-31T05:10:24;12.60;99.90
8979;DHT22;4524;51.364;5.448;2023-08-31T05:12:53;12.70;99.90
8979;DHT22;4524;51.364;5.448;2023-08-31T05:15:22;12.40;99.90
8979;DHT22;4524;51.364;5.448;2023-08-31T05:17:54;12.70;99.90
8979;DHT22;4524;51.364;5.448;2023-08-31T05:20:22;12.80;99.90
8979;DHT22;4524;51.364;5.448;2023-08-31T05:22:50;12.70;99.90
8979;DHT22;4524;51.364;5.448;2023-08-31T05:25:18;13.20;99.90
8979;DHT22;4524;51.364;5.448;2023-08-31T05:27:46;13.20;99.90
8979;DHT22;4524;51.364;5.448;2023-08-31T05:30:14;12.90;99.90
8979;DHT22;4524;51.364;5.448;2023-08-31T05:32:44;13.30;99.90
8979;DHT22;4524;51.364;5.448;2023-08-31T05:35:12;13.40;99.90
8979;DHT22;4524;51.364;5.448;2023-08-31T05:37:40;13.20;99.90
8979;DHT22;4524;51.364;5.448;2023-08-31T05:40:09;13.30;99.90
8979;DHT22;4524;51.364;5.448;2023-08-31T05:42:37;13.50;99.90
8979;DHT22;4524;51.364;5.448;2023-08-31T05:45:06;13.50;99.90
8979;DHT22;4524;51.364;5.448;2023-08-31T05:47:35;13.30;99.90
8979;DHT22;4524;51.364;5.448;2023-08-31T05:50:06;13.40;99.90
8979;DHT22;4524;51.364;5.448;2023-08-31T05:52:52;13.30;99.90
8979;DHT22;4524;51.364;5.448;2023-08-31T05:55:21;13.30;99.90
8979;DHT22;4524;51.364;5.448;2023-08-31T05:57:49;13.50;99.90
8979;DHT22;4524;51.364;5.448;2023-08-31T06:00:18;13.60;99.90
8979;DHT22;4524;51.364;5.448;2023-08-31T06:02:46;13.70;99.90
8979;DHT22;4524;51.364;5.448;2023-08-31T06:05:16;13.70;99.90
8979;DHT22;4524;51.364;5.448;2023-08-31T06:07:44;14.00;99.90
8979;DHT22;4524;51.364;5.448;2023-08-31T06:10:12;14.20;99.90
8979;DHT22;4524;51.364;5.448;2023-08-31T06:12:42;14.00;99.90
8979;DHT22;4524;51.364;5.448;2023-08-31T06:15:10;14.00;99.90
8979;DHT22;4524;51.364;5.448;2023-08-31T06:17:38;14.20;99.90
8979;DHT22;4524;51.364;5.448;2023-08-31T06:20:07;14.00;99.90
8979;DHT22;4524;51.364;5.448;2023-08-31T06:22:37;14.10;99.90
8979;DHT22;4524;51.364;5.448;2023-08-31T06:25:05;14.20;99.90
8979;DHT22;4524;51.364;5.448;2023-08-31T06:27:34;14.20;99.90
8979;DHT22;4524;51.364;5.448;2023-08-31T06:30:04;14.00;99.90
8979;DHT22;4524;51.364;5.448;2023-08-31T06:32:34;14.20;99.90
8979;DHT22;4524;51.364;5.448;2023-08-31T06:35:02;14.30;99.90
8979;DHT22;4524;51.364;5.448;2023-08-31T06:37:30;14.40;99.90
8979;DHT22;4524;51.364;5.448;2023-08-31T06:40:00;14.40;99.90
8979;DHT22;4524;51.364;5.448;2023-08-31T06:42:28;14.20;99.90
8979;DHT22;4524;51.364;5.448;2023-08-31T06:44:56;14.10;99.90
8979;DHT22;4524;51.364;5.448;2023-08-31T06:47:24;14.10;99.90
8979;DHT22;4524;51.364;5.448;2023-08-31T06:49:52;14.00;99.90
8979;DHT22;4524;51.364;5.448;2023-08-31T06:52:20;14.00;99.90
8979;DHT22;4524;51.364;5.448;2023-08-31T06:54:55;14.10;99.90
8979;DHT22;4524;51.364;5.448;2023-08-31T06:57:43;14.10;99.90
8979;DHT22;4524;51.364;5.448;2023-08-31T07:00:12;14.10;99.90
8979;DHT22;4524;51.364;5.448;2023-08-31T07:02:40;14.20;99.90
8979;DHT22;4524;51.364;5.448;2023-08-31T07:05:10;14.20;99.90
8979;DHT22;4524;51.364;5.448;2023-08-31T07:07:38;14.30;99.90
8979;DHT22;4524;51.364;5.448;2023-08-31T07:10:07;14.30;99.90
8979;DHT22;4524;51.364;5.448;2023-08-31T07:12:35;14.30;99.90
8979;DHT22;4524;51.364;5.448;2023-08-31T07:15:06;14.40;99.90
8979;DHT22;4524;51.364;5.448;2023-08-31T07:17:34;14.40;99.90
8979;DHT22;4524;51.364;5.448;2023-08-31T07:20:02;14.50;99.90
8979;DHT22;4524;51.364;5.448;2023-08-31T07:22:32;14.50;99.90
8979;DHT22;4524;51.364;5.448;2023-08-31T07:25:20;14.60;99.90
8979;DHT22;4524;51.364;5.448;2023-08-31T07:28:08;14.70;99.90
8979;DHT22;4524;51.364;5.448;2023-08-31T07:30:38;14.70;99.90
8979;DHT22;4524;51.364;5.448;2023-08-31T07:33:07;14.80;99.90
8979;DHT22;4524;51.364;5.448;2023-08-31T07:35:55;14.80;99.90
8979;DHT22;4524;51.364;5.448;2023-08-31T07:38:25;14.90;99.90
8979;DHT22;4524;51.364;5.448;2023-08-31T07:40:53;14.90;99.90
8979;DHT22;4524;51.364;5.448;2023-08-31T07:43:21;15.00;99.90
8979;DHT22;4524;51.364;5.448;2023-08-31T07:45:50;15.10;99.90
8979;DHT22;4524;51.364;5.448;2023-08-31T07:48:18;15.20;99.90
8979;DHT22;4524;51.364;5.448;2023-08-31T07:50:46;15.20;99.90
8979;DHT22;4524;51.364;5.448;2023-08-31T07:53:15;15.30;99.90
8979;DHT22;4524;51.364;5.448;2023-08-31T07:55:51;15.30;99.90
8979;DHT22;4524;51.364;5.448;2023-08-31T07:58:21;15.40;99.90
8979;DHT22;4524;51.364;5.448;2023-08-31T08:00:52;15.50;99.90
8979;DHT22;4524;51.364;5.448;2023-08-31T08:03:21;15.50;99.90
8979;DHT22;4524;51.364;5.448;2023-08-31T08:05:50;15.60;99.90
8979;DHT22;4524;51.364;5.448;2023-08-31T08:08:18;15.60;99.90
8979;DHT22;4524;51.364;5.448;2023-08-31T08:11:05;15.70;99.90
8979;DHT22;4524;51.364;5.448;2023-08-31T08:13:33;15.80;99.90
8979;DHT22;4524;51.364;5.448;2023-08-31T08:16:03;15.90;99.90
8979;DHT22;4524;51.364;5.448;2023-08-31T08:18:50;15.90;99.90
8979;DHT22;4524;51.364;5.448;2023-08-31T08:21:20;16.00;99.90
8979;DHT22;4524;51.364;5.448;2023-08-31T08:23:48;16.00;99.90
8979;DHT22;4524;51.364;5.448;2023-08-31T08:26:17;16.10;99.90
8979;DHT22;4524;51.364;5.448;2023-08-31T08:28:45;16.30;99.90
8979;DHT22;4524;51.364;5.448;2023-08-31T08:31:15;16.30;99.90
8979;DHT22;4524;51.364;5.448;2023-08-31T08:34:03;16.30;99.90
8979;DHT22;4524;51.364;5.448;2023-08-31T08:36:32;16.40;99.90
8979;DHT22;4524;51.364;5.448;2023-08-31T08:39:02;16.40;99.90
8979;DHT22;4524;51.364;5.448;2023-08-31T08:41:32;16.50;99.90
8979;DHT22;4524;51.364;5.448;2023-08-31T08:44:02;16.50;99.90
8979;DHT22;4524;51.364;5.448;2023-08-31T08:46:32;16.60;99.90
8979;DHT22;4524;51.364;5.448;2023-08-31T08:49:02;16.70;99.90
8979;DHT22;4524;51.364;5.448;2023-08-31T08:51:32;17.00;99.90
8979;DHT22;4524;51.364;5.448;2023-08-31T08:54:00;17.20;99.90
8979;DHT22;4524;51.364;5.448;2023-08-31T08:56:30;17.20;99.90
8979;DHT22;4524;51.364;5.448;2023-08-31T08:58:58;17.40;99.90
8979;DHT22;4524;51.364;5.448;2023-08-31T09:01:26;17.70;99.90
8979;DHT22;4524;51.364;5.448;2023-08-31T09:03:56;17.90;99.90
8979;DHT22;4524;51.364;5.448;2023-08-31T09:06:24;18.00;99.90
8979;DHT22;4524;51.364;5.448;2023-08-31T09:08:55;18.00;99.90
8979;DHT22;4524;51.364;5.448;2023-08-31T09:11:24;18.00;99.90
8979;DHT22;4524;51.364;5.448;2023-08-31T09:13:53;18.00;99.90
8979;DHT22;4524;51.364;5.448;2023-08-31T09:16:25;17.90;99.90
8979;DHT22;4524;51.364;5.448;2023-08-31T09:18:57;17.70;99.90
8979;DHT22;4524;51.364;5.448;2023-08-31T09:21:35;17.60;99.90
8979;DHT22;4524;51.364;5.448;2023-08-31T09:24:05;17.60;99.90
8979;DHT22;4524;51.364;5.448;2023-08-31T09:26:38;17.70;99.90
8979;DHT22;4524;51.364;5.448;2023-08-31T09:29:06;17.90;99.90
8979;DHT22;4524;51.364;5.448;2023-08-31T09:31:35;18.20;99.90
8979;DHT22;4524;51.364;5.448;2023-08-31T09:34:04;18.20;99.90
8979;DHT22;4524;51.364;5.448;2023-08-31T09:36:32;18.30;99.90
8979;DHT22;4524;51.364;5.448;2023-08-31T09:39:00;18.40;99.90
8979;DHT22;4524;51.364;5.448;2023-08-31T09:41:29;18.50;99.90
8979;DHT22;4524;51.364;5.448;2023-08-31T09:44:14;18.50;99.90
8979;DHT22;4524;51.364;5.448;2023-08-31T09:46:43;18.60;99.90
8979;DHT22;4524;51.364;5.448;2023-08-31T09:49:14;18.70;99.90
8979;DHT22;4524;51.364;5.448;2023-08-31T09:51:45;18.70;99.90
8979;DHT22;4524;51.364;5.448;2023-08-31T09:54:15;18.90;99.90
8979;DHT22;4524;51.364;5.448;2023-08-31T09:56:44;18.80;99.90
8979;DHT22;4524;51.364;5.448;2023-08-31T09:59:14;18.90;99.90
8979;DHT22;4524;51.364;5.448;2023-08-31T10:01:44;18.90;99.90
8979;DHT22;4524;51.364;5.448;2023-08-31T10:04:15;19.00;99.90
8979;DHT22;4524;51.364;5.448;2023-08-31T10:06:43;19.20;99.90
8979;DHT22;4524;51.364;5.448;2023-08-31T10:09:13;19.30;99.90
8979;DHT22;4524;51.364;5.448;2023-08-31T10:11:42;19.20;99.90
8979;DHT22;4524;51.364;5.448;2023-08-31T10:14:11;19.10;99.90
8979;DHT22;4524;51.364;5.448;2023-08-31T10:16:40;19.00;99.90
8979;DHT22;4524;51.364;5.448;2023-08-31T10:19:09;18.80;99.10
8979;DHT22;4524;51.364;5.448;2023-08-31T10:21:38;18.80;97.60
8979;DHT22;4524;51.364;5.448;2023-08-31T10:24:08;18.80;99.20
8979;DHT22;4524;51.364;5.448;2023-08-31T10:26:36;18.90;99.50
8979;DHT22;4524;51.364;5.448;2023-08-31T10:29:04;19.00;98.80
8979;DHT22;4524;51.364;5.448;2023-08-31T10:31:34;18.80;99.00
8979;DHT22;4524;51.364;5.448;2023-08-31T10:34:03;18.60;99.40
8979;DHT22;4524;51.364;5.448;2023-08-31T10:36:36;18.50;98.50
8979;DHT22;4524;51.364;5.448;2023-08-31T10:39:11;18.60;98.10
8979;DHT22;4524;51.364;5.448;2023-08-31T10:41:39;18.70;98.30
8979;DHT22;4524;51.364;5.448;2023-08-31T10:44:19;18.90;98.40
8979;DHT22;4524;51.364;5.448;2023-08-31T10:46:48;19.30;98.60
8979;DHT22;4524;51.364;5.448;2023-08-31T10:49:17;19.70;96.70
8979;DHT22;4524;51.364;5.448;2023-08-31T10:52:17;19.90;95.50
8979;DHT22;4524;51.364;5.448;2023-08-31T10:55:07;19.80;96.90
8979;DHT22;4524;51.364;5.448;2023-08-31T10:57:36;19.60;94.10
8979;DHT22;4524;51.364;5.448;2023-08-31T11:00:05;19.30;94.20
8979;DHT22;4524;51.364;5.448;2023-08-31T11:02:36;19.30;95.90
8979;DHT22;4524;51.364;5.448;2023-08-31T11:05:09;19.20;96.60
8979;DHT22;4524;51.364;5.448;2023-08-31T11:07:58;19.10;94.30
8979;DHT22;4524;51.364;5.448;2023-08-31T11:10:31;19.20;95.80
8979;DHT22;4524;51.364;5.448;2023-08-31T11:13:19;19.30;94.30
8979;DHT22;4524;51.364;5.448;2023-08-31T11:15:47;19.50;95.10
8979;DHT22;4524;51.364;5.448;2023-08-31T11:18:15;19.50;95.50
8979;DHT22;4524;51.364;5.448;2023-08-31T11:20:44;19.80;97.00
8979;DHT22;4524;51.364;5.448;2023-08-31T11:23:35;20.10;95.50
8979;DHT22;4524;51.364;5.448;2023-08-31T11:26:05;20.30;93.80
8979;DHT22;4524;51.364;5.448;2023-08-31T11:28:33;20.50;93.90
8979;DHT22;4524;51.364;5.448;2023-08-31T11:31:01;20.70;92.60
8979;DHT22;4524;51.364;5.448;2023-08-31T11:33:31;20.80;90.70
8979;DHT22;4524;51.364;5.448;2023-08-31T11:36:00;20.70;88.80
8979;DHT22;4524;51.364;5.448;2023-08-31T11:38:28;20.60;91.30
8979;DHT22;4524;51.364;5.448;2023-08-31T11:40:58;20.70;89.60
8979;DHT22;4524;51.364;5.448;2023-08-31T11:43:29;20.80;87.00
8979;DHT22;4524;51.364;5.448;2023-08-31T11:45:57;21.00;89.90
8979;DHT22;4524;51.364;5.448;2023-08-31T11:48:28;21.00;90.10
8979;DHT22;4524;51.364;5.448;2023-08-31T11:50:56;21.00;89.20
8979;DHT22;4524;51.364;5.448;2023-08-31T11:53:24;21.10;88.60
8979;DHT22;4524;51.364;5.448;2023-08-31T11:55:53;21.20;92.70
8979;DHT22;4524;51.364;5.448;2023-08-31T11:58:21;21.30;84.60
8979;DHT22;4524;51.364;5.448;2023-08-31T12:00:59;21.30;85.40
8979;DHT22;4524;51.364;5.448;2023-08-31T12:03:27;21.40;86.00
8979;DHT22;4524;51.364;5.448;2023-08-31T12:06:15;21.40;83.80
8979;DHT22;4524;51.364;5.448;2023-08-31T12:08:45;21.50;85.70
8979;DHT22;4524;51.364;5.448;2023-08-31T12:11:13;21.40;81.60
8979;DHT22;4524;51.364;5.448;2023-08-31T12:13:41;21.30;78.40
8979;DHT22;4524;51.364;5.448;2023-08-31T12:16:14;21.20;77.50
8979;DHT22;4524;51.364;5.448;2023-08-31T12:18:43;21.10;80.90
8979;DHT22;4524;51.364;5.448;2023-08-31T12:21:12;21.10;76.30
8979;DHT22;4524;51.364;5.448;2023-08-31T12:23:40;21.30;71.90
8979;DHT22;4524;51.364;5.448;2023-08-31T12:26:08;21.20;73.70
8979;DHT22;4524;51.364;5.448;2023-08-31T12:28:36;21.30;78.30
8979;DHT22;4524;51.364;5.448;2023-08-31T12:31:04;21.40;75.20
8979;DHT22;4524;51.364;5.448;2023-08-31T12:33:34;21.50;74.10
8979;DHT22;4524;51.364;5.448;2023-08-31T12:36:02;21.30;78.50
8979;DHT22;4524;51.364;5.448;2023-08-31T12:38:30;21.50;73.90
8979;DHT22;4524;51.364;5.448;2023-08-31T12:41:00;21.90;68.90
8979;DHT22;4524;51.364;5.448;2023-08-31T12:43:29;21.90;71.00
8979;DHT22;4524;51.364;5.448;2023-08-31T12:45:58;21.70;71.20
8979;DHT22;4524;51.364;5.448;2023-08-31T12:48:26;21.50;69.80
8979;DHT22;4524;51.364;5.448;2023-08-31T12:50:55;21.50;69.00
8979;DHT22;4524;51.364;5.448;2023-08-31T12:53:24;21.40;67.40
8979;DHT22;4524;51.364;5.448;2023-08-31T12:55:52;21.30;66.70
8979;DHT22;4524;51.364;5.448;2023-08-31T12:58:20;21.10;68.90
8979;DHT22;4524;51.364;5.448;2023-08-31T13:00:49;21.10;70.50
8979;DHT22;4524;51.364;5.448;2023-08-31T13:03:20;21.00;70.70
8979;DHT22;4524;51.364;5.448;2023-08-31T13:05:48;20.80;77.10
8979;DHT22;4524;51.364;5.448;2023-08-31T13:08:19;20.50;73.50
8979;DHT22;4524;51.364;5.448;2023-08-31T13:10:51;20.50;75.50
8979;DHT22;4524;51.364;5.448;2023-08-31T13:13:19;20.30;77.30
8979;DHT22;4524;51.364;5.448;2023-08-31T13:15:47;20.20;81.20
8979;DHT22;4524;51.364;5.448;2023-08-31T13:18:15;20.00;81.90
8979;DHT22;4524;51.364;5.448;2023-08-31T13:20:49;19.90;82.30
8979;DHT22;4524;51.364;5.448;2023-08-31T13:23:18;19.90;85.10
8979;DHT22;4524;51.364;5.448;2023-08-31T13:25:47;19.50;91.50
8979;DHT22;4524;51.364;5.448;2023-08-31T13:28:15;19.20;94.60
8979;DHT22;4524;51.364;5.448;2023-08-31T13:30:43;18.80;97.10
8979;DHT22;4524;51.364;5.448;2023-08-31T13:33:11;18.70;98.40
8979;DHT22;4524;51.364;5.448;2023-08-31T13:35:58;18.60;99.10
8979;DHT22;4524;51.364;5.448;2023-08-31T13:38:28;18.50;99.90
8979;DHT22;4524;51.364;5.448;2023-08-31T13:40:56;18.50;99.90
8979;DHT22;4524;51.364;5.448;2023-08-31T13:43:25;18.70;99.90
8979;DHT22;4524;51.364;5.448;2023-08-31T13:45:53;18.90;99.90
8979;DHT22;4524;51.364;5.448;2023-08-31T13:48:21;18.80;99.90
8979;DHT22;4524;51.364;5.448;2023-08-31T13:50:50;18.80;99.90
8979;DHT22;4524;51.364;5.448;2023-08-31T13:53:18;18.90;99.90
8979;DHT22;4524;51.364;5.448;2023-08-31T13:55:47;19.00;99.90
8979;DHT22;4524;51.364;5.448;2023-08-31T13:58:15;19.00;99.90
8979;DHT22;4524;51.364;5.448;2023-08-31T14:00:43;19.00;99.70
8979;DHT22;4524;51.364;5.448;2023-08-31T14:03:12;19.00;99.70
8979;DHT22;4524;51.364;5.448;2023-08-31T14:05:40;19.00;98.60
8979;DHT22;4524;51.364;5.448;2023-08-31T14:08:08;19.00;99.80
8979;DHT22;4524;51.364;5.448;2023-08-31T14:10:39;19.10;99.90
8979;DHT22;4524;51.364;5.448;2023-08-31T14:13:09;19.10;99.60
8979;DHT22;4524;51.364;5.448;2023-08-31T14:15:38;19.20;99.60
8979;DHT22;4524;51.364;5.448;2023-08-31T14:18:10;19.20;98.70
8979;DHT22;4524;51.364;5.448;2023-08-31T14:20:39;19.10;99.90
8979;DHT22;4524;51.364;5.448;2023-08-31T14:23:07;19.00;99.90
8979;DHT22;4524;51.364;5.448;2023-08-31T14:25:35;18.90;99.90
8979;DHT22;4524;51.364;5.448;2023-08-31T14:28:05;18.90;99.90
8979;DHT22;4524;51.364;5.448;2023-08-31T14:30:36;18.90;99.90
8979;DHT22;4524;51.364;5.448;2023-08-31T14:33:05;18.80;99.90
8979;DHT22;4524;51.364;5.448;2023-08-31T14:35:36;18.90;99.90
8979;DHT22;4524;51.364;5.448;2023-08-31T14:38:04;19.00;99.90
8979;DHT22;4524;51.364;5.448;2023-08-31T14:40:33;19.10;99.90
8979;DHT22;4524;51.364;5.448;2023-08-31T14:43:04;19.20;99.90
8979;DHT22;4524;51.364;5.448;2023-08-31T14:45:32;19.10;99.90
8979;DHT22;4524;51.364;5.448;2023-08-31T14:48:02;19.00;99.90
8979;DHT22;4524;51.364;5.448;2023-08-31T14:50:30;19.00;99.90
8979;DHT22;4524;51.364;5.448;2023-08-31T14:52:58;19.00;99.90
8979;DHT22;4524;51.364;5.448;2023-08-31T14:55:26;19.10;99.90
8979;DHT22;4524;51.364;5.448;2023-08-31T14:57:54;19.20;99.90
8979;DHT22;4524;51.364;5.448;2023-08-31T15:00:22;19.30;99.90
8979;DHT22;4524;51.364;5.448;2023-08-31T15:02:50;19.40;99.90
8979;DHT22;4524;51.364;5.448;2023-08-31T15:05:20;19.40;99.90
8979;DHT22;4524;51.364;5.448;2023-08-31T15:07:51;19.30;99.90
8979;DHT22;4524;51.364;5.448;2023-08-31T15:10:19;19.30;99.90
8979;DHT22;4524;51.364;5.448;2023-08-31T15:12:47;19.30;99.90
8979;DHT22;4524;51.364;5.448;2023-08-31T15:15:17;19.30;99.90
8979;DHT22;4524;51.364;5.448;2023-08-31T15:18:07;19.40;97.10
8979;DHT22;4524;51.364;5.448;2023-08-31T15:20:37;19.40;96.40
8979;DHT22;4524;51.364;5.448;2023-08-31T15:23:09;19.40;96.20
8979;DHT22;4524;51.364;5.448;2023-08-31T15:25:59;19.50;95.40
8979;DHT22;4524;51.364;5.448;2023-08-31T15:28:27;19.60;94.90
8979;DHT22;4524;51.364;5.448;2023-08-31T15:30:56;19.70;94.60
8979;DHT22;4524;51.364;5.448;2023-08-31T15:33:24;19.80;94.60
8979;DHT22;4524;51.364;5.448;2023-08-31T15:36:01;19.90;93.80
8979;DHT22;4524;51.364;5.448;2023-08-31T15:38:31;20.00;93.20
8979;DHT22;4524;51.364;5.448;2023-08-31T15:40:59;20.00;92.80
8979;DHT22;4524;51.364;5.448;2023-08-31T15:43:30;19.90;93.10
8979;DHT22;4524;51.364;5.448;2023-08-31T15:45:59;19.80;94.30
8979;DHT22;4524;51.364;5.448;2023-08-31T15:48:27;19.90;92.20
8979;DHT22;4524;51.364;5.448;2023-08-31T15:50:58;19.90;94.40
8979;DHT22;4524;51.364;5.448;2023-08-31T15:53:26;19.90;93.00
8979;DHT22;4524;51.364;5.448;2023-08-31T15:55:55;19.90;93.70
8979;DHT22;4524;51.364;5.448;2023-08-31T15:58:23;19.90;94.90
8979;DHT22;4524;51.364;5.448;2023-08-31T16:00:53;19.70;94.80
8979;DHT22;4524;51.364;5.448;2023-08-31T16:03:28;19.60;93.50
8979;DHT22;4524;51.364;5.448;2023-08-31T16:06:18;19.60;94.00
8979;DHT22;4524;51.364;5.448;2023-08-31T16:08:46;19.50;94.40
8979;DHT22;4524;51.364;5.448;2023-08-31T16:11:14;19.40;94.00
8979;DHT22;4524;51.364;5.448;2023-08-31T16:13:43;19.40;94.80
8979;DHT22;4524;51.364;5.448;2023-08-31T16:16:11;19.30;94.30
8979;DHT22;4524;51.364;5.448;2023-08-31T16:18:39;19.30;95.60
8979;DHT22;4524;51.364;5.448;2023-08-31T16:21:07;19.20;95.60
8979;DHT22;4524;51.364;5.448;2023-08-31T16:23:36;19.10;96.70
8979;DHT22;4524;51.364;5.448;2023-08-31T16:26:04;19.10;96.60